sensor_id;sensor_type;location;lat;lon;timestamp;temperature;humidity
74420;DHT22;62855;50.718;-2.460;2023-04-24T00:01:05;44.24;76.00
74420;DHT22;62855;50.718;-2.460;2023-04-24T00:04:06;44.06;76.00
74420;DHT22;62855;50.718;-2.460;2023-04-24T00:07:06;44.06;76.00
74420;DHT22;62855;50.718;-2.460;2023-04-24T00:10:07;44.06;76.00
74420;DHT22;62855;50.718;-2.460;2023-04-24T00:13:06;44.06;76.00
74420;DHT22;62855;50.718;-2.460;2023-04-24T00:16:06;44.06;76.00
74420;DHT22;62855;50.718;-2.460;2023-04-24T00:19:06;43.88;76.00
74420;DHT22;62855;50.718;-2.460;2023-04-24T00:22:06;43.88;76.00
74420;DHT22;62855;50.718;-2.460;2023-04-24T00:25:06;43.88;76.00
74420;DHT22;62855;50.718;-2.460;2023-04-24T00:28:06;43.88;76.00
74420;DHT22;62855;50.718;-2.460;2023-04-24T00:31:06;43.88;76.00
74420;DHT22;62855;50.718;-2.460;2023-04-24T00:34:06;43.88;76.00
74420;DHT22;62855;50.718;-2.460;2023-04-24T00:37:06;43.88;77.00
74420;DHT22;62855;50.718;-2.460;2023-04-24T00:40:07;43.88;77.00
74420;DHT22;62855;50.718;-2.460;2023-04-24T00:43:06;43.88;77.00
74420;DHT22;62855;50.718;-2.460;2023-04-24T00:46:07;43.70;77.00
74420;DHT22;62855;50.718;-2.460;2023-04-24T00:49:06;43.88;77.00
74420;DHT22;62855;50.718;-2.460;2023-04-24T00:52:06;43.88;77.00
74420;DHT22;62855;50.718;-2.460;2023-04-24T00:55:06;43.88;77.00
74420;DHT22;62855;50.718;-2.460;2023-04-24T00:58:06;43.70;77.00
74420;DHT22;62855;50.718;-2.460;2023-04-24T01:01:06;43.70;78.00
74420;DHT22;62855;50.718;-2.460;2023-04-24T01:04:06;43.70;78.00
74420;DHT22;62855;50.718;-2.460;2023-04-24T01:07:06;43.70;78.00
74420;DHT22;62855;50.718;-2.460;2023-04-24T01:10:07;43.52;78.00
74420;DHT22;62855;50.718;-2.460;2023-04-24T01:13:07;43.52;78.00
74420;DHT22;62855;50.718;-2.460;2023-04-24T01:16:06;43.34;78.00
74420;DHT22;62855;50.718;-2.460;2023-04-24T01:19:06;43.34;78.00
74420;DHT22;62855;50.718;-2.460;2023-04-24T01:22:10;43.16;78.00
74420;DHT22;62855;50.718;-2.460;2023-04-24T01:25:07;43.16;78.00
74420;DHT22;62855;50.718;-2.460;2023-04-24T01:28:06;42.98;78.00
74420;DHT22;62855;50.718;-2.460;2023-04-24T01:31:06;42.98;78.00
74420;DHT22;62855;50.718;-2.460;2023-04-24T01:34:06;42.80;78.00
74420;DHT22;62855;50.718;-2.460;2023-04-24T01:37:06;42.80;78.00
74420;DHT22;62855;50.718;-2.460;2023-04-24T01:40:07;42.80;78.00
74420;DHT22;62855;50.718;-2.460;2023-04-24T01:43:06;42.62;78.00
74420;DHT22;62855;50.718;-2.460;2023-04-24T01:46:06;42.62;79.00
74420;DHT22;62855;50.718;-2.460;2023-04-24T01:49:06;42.44;79.00
74420;DHT22;62855;50.718;-2.460;2023-04-24T01:52:06;42.44;79.00
74420;DHT22;62855;50.718;-2.460;2023-04-24T01:55:07;42.44;79.00
74420;DHT22;62855;50.718;-2.460;2023-04-24T01:58:05;42.44;79.00
74420;DHT22;62855;50.718;-2.460;2023-04-24T02:01:06;42.44;80.00
74420;DHT22;62855;50.718;-2.460;2023-04-24T02:04:07;42.44;80.00
74420;DHT22;62855;50.718;-2.460;2023-04-24T02:07:06;42.44;80.00
74420;DHT22;62855;50.718;-2.460;2023-04-24T02:10:07;42.44;80.00
74420;DHT22;62855;50.718;-2.460;2023-04-24T02:13:05;42.62;80.00
74420;DHT22;62855;50.718;-2.460;2023-04-24T02:16:05;42.62;80.00
74420;DHT22;62855;50.718;-2.460;2023-04-24T02:19:06;42.44;80.00
74420;DHT22;62855;50.718;-2.460;2023-04-24T02:22:06;42.44;80.00
74420;DHT22;62855;50.718;-2.460;2023-04-24T02:25:07;42.44;80.00
74420;DHT22;62855;50.718;-2.460;2023-04-24T02:28:06;42.44;80.00
74420;DHT22;62855;50.718;-2.460;2023-04-24T02:31:06;42.62;80.00
74420;DHT22;62855;50.718;-2.460;2023-04-24T02:34:06;42.62;80.00
74420;DHT22;62855;50.718;-2.460;2023-04-24T02:37:05;42.62;80.00
74420;DHT22;62855;50.718;-2.460;2023-04-24T02:40:07;42.80;80.00
74420;DHT22;62855;50.718;-2.460;2023-04-24T02:43:06;42.80;80.00
74420;DHT22;62855;50.718;-2.460;2023-04-24T02:46:06;42.62;80.00
74420;DHT22;62855;50.718;-2.460;2023-04-24T02:49:06;42.62;80.00
74420;DHT22;62855;50.718;-2.460;2023-04-24T02:52:06;42.62;80.00
74420;DHT22;62855;50.718;-2.460;2023-04-24T02:55:06;42.62;80.00
74420;DHT22;62855;50.718;-2.460;2023-04-24T02:58:05;42.62;80.00
74420;DHT22;62855;50.718;-2.460;2023-04-24T03:01:06;42.62;80.00
74420;DHT22;62855;50.718;-2.460;2023-04-24T03:04:06;42.44;80.00
74420;DHT22;62855;50.718;-2.460;2023-04-24T03:07:06;42.44;80.00
74420;DHT22;62855;50.718;-2.460;2023-04-24T03:10:08;42.26;80.00
74420;DHT22;62855;50.718;-2.460;2023-04-24T03:13:06;42.26;80.00
74420;DHT22;62855;50.718;-2.460;2023-04-24T03:16:06;42.26;80.00
74420;DHT22;62855;50.718;-2.460;2023-04-24T03:19:05;42.26;80.00
74420;DHT22;62855;50.718;-2.460;2023-04-24T03:22:06;42.26;80.00
74420;DHT22;62855;50.718;-2.460;2023-04-24T03:25:07;42.26;80.00
74420;DHT22;62855;50.718;-2.460;2023-04-24T03:28:06;42.26;80.00
74420;DHT22;62855;50.718;-2.460;2023-04-24T03:31:06;42.26;80.00
74420;DHT22;62855;50.718;-2.460;2023-04-24T03:34:06;42.26;80.00
74420;DHT22;62855;50.718;-2.460;2023-04-24T03:37:06;42.26;80.00
74420;DHT22;62855;50.718;-2.460;2023-04-24T03:40:07;42.26;80.00
74420;DHT22;62855;50.718;-2.460;2023-04-24T03:43:06;42.26;80.00
74420;DHT22;62855;50.718;-2.460;2023-04-24T03:46:06;42.08;80.00
74420;DHT22;62855;50.718;-2.460;2023-04-24T03:49:06;42.08;80.00
74420;DHT22;62855;50.718;-2.460;2023-04-24T03:52:06;41.90;80.00
74420;DHT22;62855;50.718;-2.460;2023-04-24T03:55:07;41.90;80.00
74420;DHT22;62855;50.718;-2.460;2023-04-24T03:58:06;41.90;80.00
74420;DHT22;62855;50.718;-2.460;2023-04-24T04:01:06;41.90;80.00
74420;DHT22;62855;50.718;-2.460;2023-04-24T04:04:06;41.90;80.00
74420;DHT22;62855;50.718;-2.460;2023-04-24T04:07:06;41.72;80.00
74420;DHT22;62855;50.718;-2.460;2023-04-24T04:10:07;41.72;80.00
74420;DHT22;62855;50.718;-2.460;2023-04-24T04:13:06;41.72;80.00
74420;DHT22;62855;50.718;-2.460;2023-04-24T04:16:06;41.54;80.00
74420;DHT22;62855;50.718;-2.460;2023-04-24T04:19:06;41.54;80.00
74420;DHT22;62855;50.718;-2.460;2023-04-24T04:22:06;41.36;80.00
74420;DHT22;62855;50.718;-2.460;2023-04-24T04:25:06;41.18;80.00
74420;DHT22;62855;50.718;-2.460;2023-04-24T04:28:06;41.18;80.00
74420;DHT22;62855;50.718;-2.460;2023-04-24T04:31:06;41.00;80.00
74420;DHT22;62855;50.718;-2.460;2023-04-24T04:34:06;40.82;80.00
74420;DHT22;62855;50.718;-2.460;2023-04-24T04:37:06;40.64;80.00
74420;DHT22;62855;50.718;-2.460;2023-04-24T04:43:08;40.46;80.00
74420;DHT22;62855;50.718;-2.460;2023-04-24T04:44:05;40.46;80.00
74420;DHT22;62855;50.718;-2.460;2023-04-24T04:47:05;40.46;80.00
74420;DHT22;62855;50.718;-2.460;2023-04-24T04:50:07;40.28;80.00
74420;DHT22;62855;50.718;-2.460;2023-04-24T04:53:05;40.28;80.00
74420;DHT22;62855;50.718;-2.460;2023-04-24T04:56:06;40.28;80.00
74420;DHT22;62855;50.718;-2.460;2023-04-24T04:59:06;40.46;80.00
74420;DHT22;62855;50.718;-2.460;2023-04-24T05:02:05;40.46;80.00
74420;DHT22;62855;50.718;-2.460;2023-04-24T05:05:07;40.64;81.00
74420;DHT22;62855;50.718;-2.460;2023-04-24T05:08:06;40.64;81.00
74420;DHT22;62855;50.718;-2.460;2023-04-24T05:11:06;40.82;81.00
74420;DHT22;62855;50.718;-2.460;2023-04-24T05:14:06;40.82;81.00
74420;DHT22;62855;50.718;-2.460;2023-04-24T05:17:06;40.82;81.00
74420;DHT22;62855;50.718;-2.460;2023-04-24T05:20:07;41.00;89.00
74420;DHT22;62855;50.718;-2.460;2023-04-24T05:23:06;41.18;89.00
74420;DHT22;62855;50.718;-2.460;2023-04-24T05:26:06;41.00;89.00
74420;DHT22;62855;50.718;-2.460;2023-04-24T05:29:06;41.00;89.00
74420;DHT22;62855;50.718;-2.460;2023-04-24T05:32:06;41.00;89.00
74420;DHT22;62855;50.718;-2.460;2023-04-24T05:35:06;40.82;89.00
74420;DHT22;62855;50.718;-2.460;2023-04-24T05:38:06;40.82;89.00
74420;DHT22;62855;50.718;-2.460;2023-04-24T05:41:06;40.64;88.00
74420;DHT22;62855;50.718;-2.460;2023-04-24T05:44:06;40.82;89.00
74420;DHT22;62855;50.718;-2.460;2023-04-24T05:47:05;40.82;89.00
74420;DHT22;62855;50.718;-2.460;2023-04-24T05:50:06;41.00;89.00
74420;DHT22;62855;50.718;-2.460;2023-04-24T05:53:05;41.00;89.00
74420;DHT22;62855;50.718;-2.460;2023-04-24T05:56:05;41.18;89.00
74420;DHT22;62855;50.718;-2.460;2023-04-24T05:59:05;41.36;89.00
74420;DHT22;62855;50.718;-2.460;2023-04-24T06:02:06;41.36;89.00
74420;DHT22;62855;50.718;-2.460;2023-04-24T06:05:06;41.54;90.00
74420;DHT22;62855;50.718;-2.460;2023-04-24T06:08:06;41.54;90.00
74420;DHT22;62855;50.718;-2.460;2023-04-24T06:11:06;41.54;90.00
74420;DHT22;62855;50.718;-2.460;2023-04-24T06:14:26;41.54;90.00
74420;DHT22;62855;50.718;-2.460;2023-04-24T06:18:06;41.54;90.00
74420;DHT22;62855;50.718;-2.460;2023-04-24T06:21:06;41.54;90.00
74420;DHT22;62855;50.718;-2.460;2023-04-24T06:24:06;41.54;90.00
74420;DHT22;62855;50.718;-2.460;2023-04-24T06:27:06;41.72;90.00
74420;DHT22;62855;50.718;-2.460;2023-04-24T06:30:07;41.90;90.00
74420;DHT22;62855;50.718;-2.460;2023-04-24T06:33:06;41.90;90.00
74420;DHT22;62855;50.718;-2.460;2023-04-24T06:36:06;42.26;90.00
74420;DHT22;62855;50.718;-2.460;2023-04-24T06:39:06;42.62;90.00
74420;DHT22;62855;50.718;-2.460;2023-04-24T06:42:06;42.80;90.00
74420;DHT22;62855;50.718;-2.460;2023-04-24T06:45:06;43.34;90.00
74420;DHT22;62855;50.718;-2.460;2023-04-24T06:48:06;43.70;91.00
74420;DHT22;62855;50.718;-2.460;2023-04-24T06:51:05;43.88;91.00
74420;DHT22;62855;50.718;-2.460;2023-04-24T06:54:06;44.24;91.00
74420;DHT22;62855;50.718;-2.460;2023-04-24T06:57:06;44.78;86.00
74420;DHT22;62855;50.718;-2.460;2023-04-24T07:00:08;45.14;87.00
74420;DHT22;62855;50.718;-2.460;2023-04-24T07:03:06;45.68;87.00
74420;DHT22;62855;50.718;-2.460;2023-04-24T07:06:06;46.04;87.00
74420;DHT22;62855;50.718;-2.460;2023-04-24T07:09:06;46.58;87.00
74420;DHT22;62855;50.718;-2.460;2023-04-24T07:12:06;46.94;87.00
74420;DHT22;62855;50.718;-2.460;2023-04-24T07:15:07;47.30;87.00
74420;DHT22;62855;50.718;-2.460;2023-04-24T07:18:06;47.48;87.00
74420;DHT22;62855;50.718;-2.460;2023-04-24T07:21:06;47.66;86.00
74420;DHT22;62855;50.718;-2.460;2023-04-24T07:24:06;47.84;85.00
74420;DHT22;62855;50.718;-2.460;2023-04-24T07:27:06;48.20;84.00
74420;DHT22;62855;50.718;-2.460;2023-04-24T07:30:07;48.38;84.00
74420;DHT22;62855;50.718;-2.460;2023-04-24T07:33:06;48.56;83.00
74420;DHT22;62855;50.718;-2.460;2023-04-24T07:36:06;48.74;82.00
74420;DHT22;62855;50.718;-2.460;2023-04-24T07:39:06;48.74;81.00
74420;DHT22;62855;50.718;-2.460;2023-04-24T07:42:05;48.92;80.00
74420;DHT22;62855;50.718;-2.460;2023-04-24T07:45:06;49.10;79.00
74420;DHT22;62855;50.718;-2.460;2023-04-24T07:48:06;49.28;78.00
74420;DHT22;62855;50.718;-2.460;2023-04-24T07:51:06;49.46;77.00
74420;DHT22;62855;50.718;-2.460;2023-04-24T07:54:06;49.46;76.00
74420;DHT22;62855;50.718;-2.460;2023-04-24T07:57:06;49.28;75.00
74420;DHT22;62855;50.718;-2.460;2023-04-24T08:00:07;49.10;75.00
74420;DHT22;62855;50.718;-2.460;2023-04-24T08:03:06;49.10;76.00
74420;DHT22;62855;50.718;-2.460;2023-04-24T08:06:06;49.10;75.00
74420;DHT22;62855;50.718;-2.460;2023-04-24T08:09:06;49.46;76.00
74420;DHT22;62855;50.718;-2.460;2023-04-24T08:13:05;49.82;75.00
74420;DHT22;62855;50.718;-2.460;2023-04-24T08:16:06;50.18;75.00
74420;DHT22;62855;50.718;-2.460;2023-04-24T08:19:06;50.18;73.00
74420;DHT22;62855;50.718;-2.460;2023-04-24T08:22:06;50.36;73.00
74420;DHT22;62855;50.718;-2.460;2023-04-24T08:25:07;50.72;73.00
74420;DHT22;62855;50.718;-2.460;2023-04-24T08:28:06;51.26;73.00
74420;DHT22;62855;50.718;-2.460;2023-04-24T08:31:06;51.44;71.00
74420;DHT22;62855;50.718;-2.460;2023-04-24T08:34:06;51.80;71.00
74420;DHT22;62855;50.718;-2.460;2023-04-24T08:37:06;51.98;71.00
74420;DHT22;62855;50.718;-2.460;2023-04-24T08:40:11;52.16;70.00
74420;DHT22;62855;50.718;-2.460;2023-04-24T08:43:06;52.52;71.00
74420;DHT22;62855;50.718;-2.460;2023-04-24T08:46:06;52.52;70.00
74420;DHT22;62855;50.718;-2.460;2023-04-24T08:49:06;52.88;71.00
74420;DHT22;62855;50.718;-2.460;2023-04-24T08:52:06;53.42;70.00
74420;DHT22;62855;50.718;-2.460;2023-04-24T08:55:07;53.60;65.00
74420;DHT22;62855;50.718;-2.460;2023-04-24T08:58:06;53.78;64.00
74420;DHT22;62855;50.718;-2.460;2023-04-24T09:01:06;54.14;64.00
74420;DHT22;62855;50.718;-2.460;2023-04-24T09:04:08;53.60;63.00
74420;DHT22;62855;50.718;-2.460;2023-04-24T09:07:06;54.14;59.00
74420;DHT22;62855;50.718;-2.460;2023-04-24T09:10:07;55.22;60.00
74420;DHT22;62855;50.718;-2.460;2023-04-24T09:13:06;55.04;60.00
74420;DHT22;62855;50.718;-2.460;2023-04-24T09:16:06;55.22;61.00
74420;DHT22;62855;50.718;-2.460;2023-04-24T09:19:05;55.40;61.00
74420;DHT22;62855;50.718;-2.460;2023-04-24T09:22:06;55.40;60.00
74420;DHT22;62855;50.718;-2.460;2023-04-24T09:25:08;55.76;61.00
74420;DHT22;62855;50.718;-2.460;2023-04-24T09:28:06;55.76;60.00
74420;DHT22;62855;50.718;-2.460;2023-04-24T09:31:08;55.94;61.00
74420;DHT22;62855;50.718;-2.460;2023-04-24T09:34:06;56.48;61.00
74420;DHT22;62855;50.718;-2.460;2023-04-24T09:37:06;56.66;61.00
74420;DHT22;62855;50.718;-2.460;2023-04-24T09:40:13;56.84;61.00
74420;DHT22;62855;50.718;-2.460;2023-04-24T09:43:10;56.84;60.00
74420;DHT22;62855;50.718;-2.460;2023-04-24T09:46:07;56.66;60.00
74420;DHT22;62855;50.718;-2.460;2023-04-24T09:49:09;56.66;60.00
74420;DHT22;62855;50.718;-2.460;2023-04-24T09:52:08;56.12;60.00
74420;DHT22;62855;50.718;-2.460;2023-04-24T09:55:11;55.94;60.00
74420;DHT22;62855;50.718;-2.460;2023-04-24T09:58:08;56.30;61.00
74420;DHT22;62855;50.718;-2.460;2023-04-24T10:01:06;56.48;60.00
74420;DHT22;62855;50.718;-2.460;2023-04-24T10:04:06;56.66;60.00
74420;DHT22;62855;50.718;-2.460;2023-04-24T10:07:06;56.48;60.00
74420;DHT22;62855;50.718;-2.460;2023-04-24T10:10:06;56.30;60.00
74420;DHT22;62855;50.718;-2.460;2023-04-24T10:13:07;56.30;60.00
74420;DHT22;62855;50.718;-2.460;2023-04-24T10:16:06;56.12;60.00
74420;DHT22;62855;50.718;-2.460;2023-04-24T10:19:06;56.30;60.00
74420;DHT22;62855;50.718;-2.460;2023-04-24T10:22:07;56.48;60.00
74420;DHT22;62855;50.718;-2.460;2023-04-24T10:25:06;56.66;60.00
74420;DHT22;62855;50.718;-2.460;2023-04-24T10:28:06;56.84;60.00
74420;DHT22;62855;50.718;-2.460;2023-04-24T10:31:06;56.84;60.00
74420;DHT22;62855;50.718;-2.460;2023-04-24T10:34:07;56.84;60.00
74420;DHT22;62855;50.718;-2.460;2023-04-24T10:37:06;57.02;60.00
74420;DHT22;62855;50.718;-2.460;2023-04-24T10:40:07;56.66;59.00
74420;DHT22;62855;50.718;-2.460;2023-04-24T10:43:07;56.30;59.00
74420;DHT22;62855;50.718;-2.460;2023-04-24T10:46:06;56.12;60.00
74420;DHT22;62855;50.718;-2.460;2023-04-24T10:49:07;55.94;60.00
74420;DHT22;62855;50.718;-2.460;2023-04-24T10:52:08;55.94;60.00
74420;DHT22;62855;50.718;-2.460;2023-04-24T10:55:06;55.94;59.00
74420;DHT22;62855;50.718;-2.460;2023-04-24T10:58:06;55.76;60.00
74420;DHT22;62855;50.718;-2.460;2023-04-24T11:01:06;55.76;60.00
74420;DHT22;62855;50.718;-2.460;2023-04-24T11:04:06;56.12;60.00
74420;DHT22;62855;50.718;-2.460;2023-04-24T11:07:06;56.66;60.00
74420;DHT22;62855;50.718;-2.460;2023-04-24T11:10:07;56.84;60.00
74420;DHT22;62855;50.718;-2.460;2023-04-24T11:13:07;57.02;59.00
74420;DHT22;62855;50.718;-2.460;2023-04-24T11:16:14;57.02;57.00
74420;DHT22;62855;50.718;-2.460;2023-04-24T11:19:07;56.84;56.00
74420;DHT22;62855;50.718;-2.460;2023-04-24T11:22:14;56.84;56.00
74420;DHT22;62855;50.718;-2.460;2023-04-24T11:25:07;56.48;56.00
74420;DHT22;62855;50.718;-2.460;2023-04-24T11:28:06;56.30;58.00
74420;DHT22;62855;50.718;-2.460;2023-04-24T11:34:09;56.12;59.00
74420;DHT22;62855;50.718;-2.460;2023-04-24T11:37:06;56.30;59.00
74420;DHT22;62855;50.718;-2.460;2023-04-24T11:40:11;56.48;58.00
74420;DHT22;62855;50.718;-2.460;2023-04-24T11:43:06;56.66;58.00
74420;DHT22;62855;50.718;-2.460;2023-04-24T11:46:06;56.84;58.00
74420;DHT22;62855;50.718;-2.460;2023-04-24T11:49:06;57.20;58.00
74420;DHT22;62855;50.718;-2.460;2023-04-24T11:52:06;57.20;57.00
74420;DHT22;62855;50.718;-2.460;2023-04-24T11:55:07;57.38;57.00
74420;DHT22;62855;50.718;-2.460;2023-04-24T11:58:06;57.20;56.00
74420;DHT22;62855;50.718;-2.460;2023-04-24T12:01:06;57.20;55.00
74420;DHT22;62855;50.718;-2.460;2023-04-24T12:04:06;57.38;56.00
74420;DHT22;62855;50.718;-2.460;2023-04-24T12:07:06;57.38;56.00
74420;DHT22;62855;50.718;-2.460;2023-04-24T12:10:06;57.20;55.00
74420;DHT22;62855;50.718;-2.460;2023-04-24T12:13:09;57.20;55.00
74420;DHT22;62855;50.718;-2.460;2023-04-24T12:16:06;57.20;55.00
74420;DHT22;62855;50.718;-2.460;2023-04-24T12:19:06;57.38;56.00
74420;DHT22;62855;50.718;-2.460;2023-04-24T12:22:06;57.38;56.00
74420;DHT22;62855;50.718;-2.460;2023-04-24T12:25:10;57.38;55.00
74420;DHT22;62855;50.718;-2.460;2023-04-24T12:28:11;57.02;55.00
74420;DHT22;62855;50.718;-2.460;2023-04-24T12:31:07;57.02;56.00
74420;DHT22;62855;50.718;-2.460;2023-04-24T12:34:17;57.02;55.00
74420;DHT22;62855;50.718;-2.460;2023-04-24T12:37:10;57.02;55.00
74420;DHT22;62855;50.718;-2.460;2023-04-24T12:40:08;57.20;55.00
74420;DHT22;62855;50.718;-2.460;2023-04-24T12:43:13;57.38;54.00
74420;DHT22;62855;50.718;-2.460;2023-04-24T12:46:05;57.38;52.00
74420;DHT22;62855;50.718;-2.460;2023-04-24T12:49:05;57.20;52.00
74420;DHT22;62855;50.718;-2.460;2023-04-24T12:52:06;57.20;52.00
74420;DHT22;62855;50.718;-2.460;2023-04-24T12:55:07;57.02;53.00
74420;DHT22;62855;50.718;-2.460;2023-04-24T12:58:06;57.02;53.00
74420;DHT22;62855;50.718;-2.460;2023-04-24T13:01:05;57.02;53.00
74420;DHT22;62855;50.718;-2.460;2023-04-24T13:04:05;57.20;54.00
74420;DHT22;62855;50.718;-2.460;2023-04-24T13:07:06;57.38;53.00
74420;DHT22;62855;50.718;-2.460;2023-04-24T13:10:07;57.56;54.00
74420;DHT22;62855;50.718;-2.460;2023-04-24T13:13:06;57.74;53.00
74420;DHT22;62855;50.718;-2.460;2023-04-24T13:16:06;57.74;52.00
74420;DHT22;62855;50.718;-2.460;2023-04-24T13:19:06;57.92;54.00
74420;DHT22;62855;50.718;-2.460;2023-04-24T13:22:06;57.74;54.00
74420;DHT22;62855;50.718;-2.460;2023-04-24T13:25:06;57.74;55.00
74420;DHT22;62855;50.718;-2.460;2023-04-24T13:28:06;57.56;56.00
74420;DHT22;62855;50.718;-2.460;2023-04-24T13:31:06;57.56;55.00
74420;DHT22;62855;50.718;-2.460;2023-04-24T13:34:06;57.56;55.00
74420;DHT22;62855;50.718;-2.460;2023-04-24T13:37:06;57.74;54.00
74420;DHT22;62855;50.718;-2.460;2023-04-24T13:40:07;57.74;54.00
74420;DHT22;62855;50.718;-2.460;2023-04-24T13:43:06;57.92;54.00
74420;DHT22;62855;50.718;-2.460;2023-04-24T13:46:06;58.10;54.00
74420;DHT22;62855;50.718;-2.460;2023-04-24T13:49:06;58.46;54.00
74420;DHT22;62855;50.718;-2.460;2023-04-24T13:52:05;58.82;54.00
74420;DHT22;62855;50.718;-2.460;2023-04-24T13:55:06;59.36;54.00
74420;DHT22;62855;50.718;-2.460;2023-04-24T13:58:06;59.90;52.00
74420;DHT22;62855;50.718;-2.460;2023-04-24T14:01:06;59.72;51.00
74420;DHT22;62855;50.718;-2.460;2023-04-24T14:04:06;59.54;51.00
74420;DHT22;62855;50.718;-2.460;2023-04-24T14:07:06;59.54;51.00
74420;DHT22;62855;50.718;-2.460;2023-04-24T14:10:07;59.54;51.00
74420;DHT22;62855;50.718;-2.460;2023-04-24T14:13:05;59.18;51.00
74420;DHT22;62855;50.718;-2.460;2023-04-24T14:16:06;58.46;51.00
74420;DHT22;62855;50.718;-2.460;2023-04-24T14:19:06;57.74;51.00
74420;DHT22;62855;50.718;-2.460;2023-04-24T14:22:06;56.66;51.00
74420;DHT22;62855;50.718;-2.460;2023-04-24T14:25:06;55.76;51.00
74420;DHT22;62855;50.718;-2.460;2023-04-24T14:28:06;55.40;52.00
74420;DHT22;62855;50.718;-2.460;2023-04-24T14:31:06;55.04;53.00
74420;DHT22;62855;50.718;-2.460;2023-04-24T14:34:06;54.68;53.00
74420;DHT22;62855;50.718;-2.460;2023-04-24T14:37:06;54.32;54.00
74420;DHT22;62855;50.718;-2.460;2023-04-24T14:40:07;54.50;55.00
74420;DHT22;62855;50.718;-2.460;2023-04-24T14:43:06;54.50;56.00
74420;DHT22;62855;50.718;-2.460;2023-04-24T14:46:05;54.50;57.00
74420;DHT22;62855;50.718;-2.460;2023-04-24T14:49:06;54.50;57.00
74420;DHT22;62855;50.718;-2.460;2023-04-24T14:52:05;54.14;55.00
74420;DHT22;62855;50.718;-2.460;2023-04-24T14:55:06;53.96;55.00
74420;DHT22;62855;50.718;-2.460;2023-04-24T14:58:06;53.60;55.00
74420;DHT22;62855;50.718;-2.460;2023-04-24T15:01:06;53.60;55.00
74420;DHT22;62855;50.718;-2.460;2023-04-24T15:04:06;53.60;56.00
74420;DHT22;62855;50.718;-2.460;2023-04-24T15:07:06;53.78;56.00
74420;DHT22;62855;50.718;-2.460;2023-04-24T15:10:07;53.78;55.00
74420;DHT22;62855;50.718;-2.460;2023-04-24T15:13:06;53.96;55.00
74420;DHT22;62855;50.718;-2.460;2023-04-24T15:16:06;54.68;56.00
74420;DHT22;62855;50.718;-2.460;2023-04-24T15:19:06;55.22;56.00
74420;DHT22;62855;50.718;-2.460;2023-04-24T15:22:06;55.22;53.00
74420;DHT22;62855;50.718;-2.460;2023-04-24T15:25:07;55.22;53.00
74420;DHT22;62855;50.718;-2.460;2023-04-24T15:28:06;55.22;53.00
74420;DHT22;62855;50.718;-2.460;2023-04-24T15:31:05;54.68;52.00
74420;DHT22;62855;50.718;-2.460;2023-04-24T15:34:05;54.68;53.00
74420;DHT22;62855;50.718;-2.460;2023-04-24T15:37:05;54.86;54.00
74420;DHT22;62855;50.718;-2.460;2023-04-24T15:40:07;55.04;54.00
74420;DHT22;62855;50.718;-2.460;2023-04-24T15:43:06;54.86;53.00
74420;DHT22;62855;50.718;-2.460;2023-04-24T15:46:05;54.86;54.00
74420;DHT22;62855;50.718;-2.460;2023-04-24T15:49:06;54.68;53.00
74420;DHT22;62855;50.718;-2.460;2023-04-24T15:52:06;54.32;53.00
74420;DHT22;62855;50.718;-2.460;2023-04-24T15:55:06;54.14;54.00
74420;DHT22;62855;50.718;-2.460;2023-04-24T15:58:06;54.14;54.00
74420;DHT22;62855;50.718;-2.460;2023-04-24T16:01:06;53.60;54.00
74420;DHT22;62855;50.718;-2.460;2023-04-24T16:04:05;53.06;57.00
74420;DHT22;62855;50.718;-2.460;2023-04-24T16:07:06;52.70;58.00
74420;DHT22;62855;50.718;-2.460;2023-04-24T16:10:07;52.34;60.00
74420;DHT22;62855;50.718;-2.460;2023-04-24T16:13:06;51.98;62.00
74420;DHT22;62855;50.718;-2.460;2023-04-24T16:16:06;51.26;64.00
74420;DHT22;62855;50.718;-2.460;2023-04-24T16:19:05;50.36;65.00
74420;DHT22;62855;50.718;-2.460;2023-04-24T16:22:05;49.64;65.00
74420;DHT22;62855;50.718;-2.460;2023-04-24T16:25:06;48.92;66.00
74420;DHT22;62855;50.718;-2.460;2023-04-24T16:28:06;48.38;68.00
74420;DHT22;62855;50.718;-2.460;2023-04-24T16:31:06;47.84;69.00
74420;DHT22;62855;50.718;-2.460;2023-04-24T16:34:06;46.76;70.00
74420;DHT22;62855;50.718;-2.460;2023-04-24T16:37:06;46.94;71.00
74420;DHT22;62855;50.718;-2.460;2023-04-24T16:40:07;47.12;72.00
74420;DHT22;62855;50.718;-2.460;2023-04-24T16:43:06;47.30;73.00
74420;DHT22;62855;50.718;-2.460;2023-04-24T16:46:06;47.66;73.00
74420;DHT22;62855;50.718;-2.460;2023-04-24T16:49:06;47.84;74.00
74420;DHT22;62855;50.718;-2.460;2023-04-24T16:52:07;48.02;75.00
74420;DHT22;62855;50.718;-2.460;2023-04-24T16:55:07;48.20;75.00
74420;DHT22;62855;50.718;-2.460;2023-04-24T16:58:06;48.20;76.00
74420;DHT22;62855;50.718;-2.460;2023-04-24T17:01:06;48.20;76.00
74420;DHT22;62855;50.718;-2.460;2023-04-24T17:04:06;48.20;76.00
74420;DHT22;62855;50.718;-2.460;2023-04-24T17:07:06;48.20;77.00
74420;DHT22;62855;50.718;-2.460;2023-04-24T17:10:07;48.20;77.00
74420;DHT22;62855;50.718;-2.460;2023-04-24T17:13:06;48.38;77.00
74420;DHT22;62855;50.718;-2.460;2023-04-24T17:16:06;48.38;78.00
74420;DHT22;62855;50.718;-2.460;2023-04-24T17:19:06;48.38;78.00
74420;DHT22;62855;50.718;-2.460;2023-04-24T17:22:06;48.38;78.00
74420;DHT22;62855;50.718;-2.460;2023-04-24T17:25:06;48.56;78.00
74420;DHT22;62855;50.718;-2.460;2023-04-24T17:28:14;48.56;78.00
74420;DHT22;62855;50.718;-2.460;2023-04-24T17:31:06;48.56;79.00
74420;DHT22;62855;50.718;-2.460;2023-04-24T17:34:06;48.56;79.00
74420;DHT22;62855;50.718;-2.460;2023-04-24T17:37:06;48.56;79.00
74420;DHT22;62855;50.718;-2.460;2023-04-24T17:40:07;48.38;79.00
74420;DHT22;62855;50.718;-2.460;2023-04-24T17:43:06;48.20;79.00
74420;DHT22;62855;50.718;-2.460;2023-04-24T17:46:06;47.66;78.00
74420;DHT22;62855;50.718;-2.460;2023-04-24T17:49:06;47.12;78.00
74420;DHT22;62855;50.718;-2.460;2023-04-24T17:52:06;46.94;78.00
74420;DHT22;62855;50.718;-2.460;2023-04-24T17:55:07;46.76;78.00
74420;DHT22;62855;50.718;-2.460;2023-04-24T17:58:06;46.58;78.00
74420;DHT22;62855;50.718;-2.460;2023-04-24T18:01:06;46.58;78.00
74420;DHT22;62855;50.718;-2.460;2023-04-24T18:04:07;46.58;78.00
74420;DHT22;62855;50.718;-2.460;2023-04-24T18:07:06;46.58;78.00
74420;DHT22;62855;50.718;-2.460;2023-04-24T18:10:06;46.76;78.00
74420;DHT22;62855;50.718;-2.460;2023-04-24T18:13:06;46.76;78.00
74420;DHT22;62855;50.718;-2.460;2023-04-24T18:16:06;46.58;79.00
74420;DHT22;62855;50.718;-2.460;2023-04-24T18:19:06;46.40;79.00
74420;DHT22;62855;50.718;-2.460;2023-04-24T18:22:06;46.22;79.00
74420;DHT22;62855;50.718;-2.460;2023-04-24T18:25:06;46.04;79.00
74420;DHT22;62855;50.718;-2.460;2023-04-24T18:28:06;45.86;79.00
74420;DHT22;62855;50.718;-2.460;2023-04-24T18:31:06;45.68;79.00
74420;DHT22;62855;50.718;-2.460;2023-04-24T18:34:06;45.50;79.00
74420;DHT22;62855;50.718;-2.460;2023-04-24T18:37:05;45.50;79.00
74420;DHT22;62855;50.718;-2.460;2023-04-24T18:40:08;45.32;79.00
74420;DHT22;62855;50.718;-2.460;2023-04-24T18:43:06;45.14;79.00